sensor_id;sensor_type;location;lat;lon;timestamp;P1;durP1;ratioP1;P2;durP2;ratioP2
65018;SDS011;66069;51.164;-114.452;2024-01-15T00:00:01;3.08;;;1.08;;
65018;SDS011;66069;51.164;-114.452;2024-01-15T00:02:29;2.30;;;0.90;;
65018;SDS011;66069;51.164;-114.452;2024-01-15T00:04:55;1.67;;;0.80;;
65018;SDS011;66069;51.164;-114.452;2024-01-15T00:07:22;2.05;;;0.70;;
65018;SDS011;66069;51.164;-114.452;2024-01-15T00:09:48;2.10;;;0.80;;
65018;SDS011;66069;51.164;-114.452;2024-01-15T00:12:14;3.20;;;0.88;;
65018;SDS011;66069;51.164;-114.452;2024-01-15T00:14:40;3.25;;;0.95;;
65018;SDS011;66069;51.164;-114.452;2024-01-15T00:17:07;2.33;;;0.77;;
65018;SDS011;66069;51.164;-114.452;2024-01-15T00:19:33;3.15;;;0.80;;
65018;SDS011;66069;51.164;-114.452;2024-01-15T00:21:59;2.40;;;1.25;;
65018;SDS011;66069;51.164;-114.452;2024-01-15T00:24:25;1.90;;;0.70;;
65018;SDS011;66069;51.164;-114.452;2024-01-15T00:26:52;2.42;;;0.88;;
65018;SDS011;66069;51.164;-114.452;2024-01-15T00:29:19;1.75;;;0.60;;
65018;SDS011;66069;51.164;-114.452;2024-01-15T00:31:45;1.70;;;0.70;;
65018;SDS011;66069;51.164;-114.452;2024-01-15T00:34:11;1.88;;;0.80;;
65018;SDS011;66069;51.164;-114.452;2024-01-15T00:36:37;2.00;;;0.70;;
65018;SDS011;66069;51.164;-114.452;2024-01-15T00:39:03;1.92;;;0.80;;
65018;SDS011;66069;51.164;-114.452;2024-01-15T00:41:33;1.45;;;0.70;;
65018;SDS011;66069;51.164;-114.452;2024-01-15T00:43:59;1.67;;;0.65;;
65018;SDS011;66069;51.164;-114.452;2024-01-15T00:46:25;2.47;;;1.08;;
65018;SDS011;66069;51.164;-114.452;2024-01-15T00:48:51;2.88;;;0.90;;
65018;SDS011;66069;51.164;-114.452;2024-01-15T00:51:18;1.10;;;0.57;;
65018;SDS011;66069;51.164;-114.452;2024-01-15T00:53:44;2.08;;;0.80;;
65018;SDS011;66069;51.164;-114.452;2024-01-15T00:56:10;2.20;;;0.90;;
65018;SDS011;66069;51.164;-114.452;2024-01-15T00:58:36;1.63;;;0.73;;
65018;SDS011;66069;51.164;-114.452;2024-01-15T01:01:03;2.15;;;0.70;;
65018;SDS011;66069;51.164;-114.452;2024-01-15T01:03:29;2.20;;;0.90;;
65018;SDS011;66069;51.164;-114.452;2024-01-15T01:05:56;1.98;;;0.85;;
65018;SDS011;66069;51.164;-114.452;2024-01-15T01:08:22;2.20;;;1.00;;
65018;SDS011;66069;51.164;-114.452;2024-01-15T01:10:48;3.05;;;0.80;;
65018;SDS011;66069;51.164;-114.452;2024-01-15T01:13:14;1.70;;;0.73;;
65018;SDS011;66069;51.164;-114.452;2024-01-15T01:15:41;1.83;;;0.90;;
65018;SDS011;66069;51.164;-114.452;2024-01-15T01:18:07;1.92;;;0.63;;
65018;SDS011;66069;51.164;-114.452;2024-01-15T01:20:33;1.75;;;0.70;;
65018;SDS011;66069;51.164;-114.452;2024-01-15T01:22:59;2.40;;;0.80;;
65018;SDS011;66069;51.164;-114.452;2024-01-15T01:25:26;2.17;;;0.70;;
65018;SDS011;66069;51.164;-114.452;2024-01-15T01:27:52;1.30;;;0.55;;
65018;SDS011;66069;51.164;-114.452;2024-01-15T01:30:18;2.42;;;0.80;;
65018;SDS011;66069;51.164;-114.452;2024-01-15T01:32:45;1.77;;;0.70;;
65018;SDS011;66069;51.164;-114.452;2024-01-15T01:35:12;1.40;;;0.60;;
65018;SDS011;66069;51.164;-114.452;2024-01-15T01:37:38;1.48;;;0.60;;
65018;SDS011;66069;51.164;-114.452;2024-01-15T01:40:05;2.00;;;0.70;;
65018;SDS011;66069;51.164;-114.452;2024-01-15T01:42:31;1.98;;;0.82;;
65018;SDS011;66069;51.164;-114.452;2024-01-15T01:44:58;3.45;;;0.80;;
65018;SDS011;66069;51.164;-114.452;2024-01-15T01:47:24;1.48;;;0.63;;
65018;SDS011;66069;51.164;-114.452;2024-01-15T01:49:52;1.20;;;0.47;;
65018;SDS011;66069;51.164;-114.452;2024-01-15T01:52:19;1.85;;;0.80;;
65018;SDS011;66069;51.164;-114.452;2024-01-15T01:54:45;1.20;;;0.60;;
65018;SDS011;66069;51.164;-114.452;2024-01-15T01:57:11;1.85;;;0.60;;
65018;SDS011;66069;51.164;-114.452;2024-01-15T01:59:38;1.30;;;0.50;;
65018;SDS011;66069;51.164;-114.452;2024-01-15T02:02:05;1.52;;;0.50;;
65018;SDS011;66069;51.164;-114.452;2024-01-15T02:04:32;1.25;;;0.73;;
65018;SDS011;66069;51.164;-114.452;2024-01-15T02:06:59;1.58;;;0.63;;
65018;SDS011;66069;51.164;-114.452;2024-01-15T02:09:25;0.75;;;0.52;;
65018;SDS011;66069;51.164;-114.452;2024-01-15T02:11:52;1.33;;;0.55;;
65018;SDS011;66069;51.164;-114.452;2024-01-15T02:14:18;1.00;;;0.50;;
65018;SDS011;66069;51.164;-114.452;2024-01-15T02:16:45;1.02;;;0.63;;
65018;SDS011;66069;51.164;-114.452;2024-01-15T02:19:15;0.68;;;0.40;;
65018;SDS011;66069;51.164;-114.452;2024-01-15T02:21:42;1.70;;;0.60;;
65018;SDS011;66069;51.164;-114.452;2024-01-15T02:24:09;1.17;;;0.70;;
65018;SDS011;66069;51.164;-114.452;2024-01-15T02:26:39;1.00;;;0.55;;
65018;SDS011;66069;51.164;-114.452;2024-01-15T02:29:06;1.08;;;0.40;;
65018;SDS011;66069;51.164;-114.452;2024-01-15T02:31:35;0.80;;;0.40;;
65018;SDS011;66069;51.164;-114.452;2024-01-15T02:34:04;0.70;;;0.40;;
65018;SDS011;66069;51.164;-114.452;2024-01-15T02:36:30;2.13;;;0.57;;
65018;SDS011;66069;51.164;-114.452;2024-01-15T02:38:57;0.98;;;0.50;;
65018;SDS011;66069;51.164;-114.452;2024-01-15T02:41:23;3.08;;;0.65;;
65018;SDS011;66069;51.164;-114.452;2024-01-15T02:43:50;0.93;;;0.40;;
65018;SDS011;66069;51.164;-114.452;2024-01-15T02:46:16;0.68;;;0.45;;
65018;SDS011;66069;51.164;-114.452;2024-01-15T02:48:42;0.82;;;0.40;;
65018;SDS011;66069;51.164;-114.452;2024-01-15T02:51:09;0.88;;;0.40;;
65018;SDS011;66069;51.164;-114.452;2024-01-15T02:53:35;1.38;;;0.55;;
65018;SDS011;66069;51.164;-114.452;2024-01-15T02:56:02;1.33;;;0.70;;
65018;SDS011;66069;51.164;-114.452;2024-01-15T02:58:29;1.70;;;0.60;;
65018;SDS011;66069;51.164;-114.452;2024-01-15T03:00:59;2.10;;;0.60;;
65018;SDS011;66069;51.164;-114.452;2024-01-15T03:03:25;0.93;;;0.40;;
65018;SDS011;66069;51.164;-114.452;2024-01-15T03:05:52;1.30;;;0.70;;
65018;SDS011;66069;51.164;-114.452;2024-01-15T03:08:18;0.88;;;0.43;;
65018;SDS011;66069;51.164;-114.452;2024-01-15T03:10:45;1.23;;;0.57;;
65018;SDS011;66069;51.164;-114.452;2024-01-15T03:13:11;1.25;;;0.40;;
65018;SDS011;66069;51.164;-114.452;2024-01-15T03:15:37;0.90;;;0.40;;
65018;SDS011;66069;51.164;-114.452;2024-01-15T03:18:04;1.17;;;0.57;;
65018;SDS011;66069;51.164;-114.452;2024-01-15T03:20:31;0.98;;;0.47;;
65018;SDS011;66069;51.164;-114.452;2024-01-15T03:22:58;1.70;;;0.70;;
65018;SDS011;66069;51.164;-114.452;2024-01-15T03:25:24;1.77;;;0.75;;
65018;SDS011;66069;51.164;-114.452;2024-01-15T03:27:51;1.58;;;0.40;;
65018;SDS011;66069;51.164;-114.452;2024-01-15T03:30:17;0.73;;;0.50;;
65018;SDS011;66069;51.164;-114.452;2024-01-15T03:32:43;0.85;;;0.50;;
65018;SDS011;66069;51.164;-114.452;2024-01-15T03:35:10;0.80;;;0.40;;
65018;SDS011;66069;51.164;-114.452;2024-01-15T03:37:36;1.00;;;0.40;;
65018;SDS011;66069;51.164;-114.452;2024-01-15T03:40:02;1.27;;;0.50;;
65018;SDS011;66069;51.164;-114.452;2024-01-15T03:42:29;0.60;;;0.38;;
65018;SDS011;66069;51.164;-114.452;2024-01-15T03:44:55;1.10;;;0.47;;
65018;SDS011;66069;51.164;-114.452;2024-01-15T03:47:22;1.08;;;0.50;;
65018;SDS011;66069;51.164;-114.452;2024-01-15T03:49:48;0.63;;;0.35;;
65018;SDS011;66069;51.164;-114.452;2024-01-15T03:52:14;0.98;;;0.52;;
65018;SDS011;66069;51.164;-114.452;2024-01-15T03:54:40;0.68;;;0.50;;
65018;SDS011;66069;51.164;-114.452;2024-01-15T03:57:07;0.75;;;0.43;;
65018;SDS011;66069;51.164;-114.452;2024-01-15T03:59:33;0.70;;;0.40;;
65018;SDS011;66069;51.164;-114.452;2024-01-15T04:01:59;0.45;;;0.38;;
65018;SDS011;66069;51.164;-114.452;2024-01-15T04:04:25;1.17;;;0.50;;
65018;SDS011;66069;51.164;-114.452;2024-01-15T04:06:52;0.75;;;0.40;;
65018;SDS011;66069;51.164;-114.452;2024-01-15T04:09:18;0.93;;;0.38;;
65018;SDS011;66069;51.164;-114.452;2024-01-15T04:11:44;0.70;;;0.38;;
65018;SDS011;66069;51.164;-114.452;2024-01-15T04:14:11;1.38;;;0.50;;
65018;SDS011;66069;51.164;-114.452;2024-01-15T04:16:37;0.80;;;0.40;;
65018;SDS011;66069;51.164;-114.452;2024-01-15T04:19:03;0.43;;;0.30;;
65018;SDS011;66069;51.164;-114.452;2024-01-15T04:21:30;0.82;;;0.43;;
65018;SDS011;66069;51.164;-114.452;2024-01-15T04:23:56;1.13;;;0.50;;
65018;SDS011;66069;51.164;-114.452;2024-01-15T04:26:23;0.85;;;0.43;;
65018;SDS011;66069;51.164;-114.452;2024-01-15T04:28:49;1.35;;;0.40;;
65018;SDS011;66069;51.164;-114.452;2024-01-15T04:31:24;1.00;;;0.40;;
65018;SDS011;66069;51.164;-114.452;2024-01-15T04:33:52;1.13;;;0.40;;
65018;SDS011;66069;51.164;-114.452;2024-01-15T04:36:18;0.45;;;0.30;;
65018;SDS011;66069;51.164;-114.452;2024-01-15T04:38:45;0.47;;;0.30;;
65018;SDS011;66069;51.164;-114.452;2024-01-15T04:41:14;1.02;;;0.35;;
65018;SDS011;66069;51.164;-114.452;2024-01-15T04:43:42;0.75;;;0.30;;
65018;SDS011;66069;51.164;-114.452;2024-01-15T04:46:08;0.40;;;0.40;;
65018;SDS011;66069;51.164;-114.452;2024-01-15T04:48:35;0.82;;;0.45;;
65018;SDS011;66069;51.164;-114.452;2024-01-15T04:51:03;0.77;;;0.40;;
65018;SDS011;66069;51.164;-114.452;2024-01-15T04:53:30;1.15;;;0.50;;
65018;SDS011;66069;51.164;-114.452;2024-01-15T04:55:56;0.88;;;0.50;;
65018;SDS011;66069;51.164;-114.452;2024-01-15T04:58:23;0.70;;;0.40;;
65018;SDS011;66069;51.164;-114.452;2024-01-15T05:00:52;0.93;;;0.40;;
65018;SDS011;66069;51.164;-114.452;2024-01-15T05:03:19;0.77;;;0.40;;
65018;SDS011;66069;51.164;-114.452;2024-01-15T05:05:46;0.70;;;0.30;;
65018;SDS011;66069;51.164;-114.452;2024-01-15T05:08:12;0.90;;;0.40;;
65018;SDS011;66069;51.164;-114.452;2024-01-15T05:10:38;0.38;;;0.30;;
65018;SDS011;66069;51.164;-114.452;2024-01-15T05:13:04;0.65;;;0.40;;
65018;SDS011;66069;51.164;-114.452;2024-01-15T05:15:31;1.10;;;0.43;;
65018;SDS011;66069;51.164;-114.452;2024-01-15T05:17:57;1.10;;;0.40;;
65018;SDS011;66069;51.164;-114.452;2024-01-15T05:20:23;0.75;;;0.35;;
65018;SDS011;66069;51.164;-114.452;2024-01-15T05:22:49;0.70;;;0.30;;
65018;SDS011;66069;51.164;-114.452;2024-01-15T05:25:15;0.65;;;0.40;;
65018;SDS011;66069;51.164;-114.452;2024-01-15T05:27:42;0.55;;;0.30;;
65018;SDS011;66069;51.164;-114.452;2024-01-15T05:30:08;0.65;;;0.40;;
65018;SDS011;66069;51.164;-114.452;2024-01-15T05:32:34;0.90;;;0.32;;
65018;SDS011;66069;51.164;-114.452;2024-01-15T05:35:01;1.02;;;0.50;;
65018;SDS011;66069;51.164;-114.452;2024-01-15T05:37:27;0.68;;;0.40;;
65018;SDS011;66069;51.164;-114.452;2024-01-15T05:39:53;1.20;;;0.32;;
65018;SDS011;66069;51.164;-114.452;2024-01-15T05:42:19;0.70;;;0.30;;
65018;SDS011;66069;51.164;-114.452;2024-01-15T05:44:46;0.30;;;0.30;;
65018;SDS011;66069;51.164;-114.452;2024-01-15T05:47:12;0.70;;;0.45;;
65018;SDS011;66069;51.164;-114.452;2024-01-15T05:49:38;1.17;;;0.40;;
65018;SDS011;66069;51.164;-114.452;2024-01-15T05:52:04;0.55;;;0.30;;
65018;SDS011;66069;51.164;-114.452;2024-01-15T05:54:31;0.77;;;0.30;;
65018;SDS011;66069;51.164;-114.452;2024-01-15T05:56:57;1.17;;;0.50;;
65018;SDS011;66069;51.164;-114.452;2024-01-15T05:59:24;0.52;;;0.30;;
65018;SDS011;66069;51.164;-114.452;2024-01-15T06:01:50;0.95;;;0.30;;
65018;SDS011;66069;51.164;-114.452;2024-01-15T06:04:17;1.00;;;0.40;;
65018;SDS011;66069;51.164;-114.452;2024-01-15T06:06:43;0.75;;;0.30;;
65018;SDS011;66069;51.164;-114.452;2024-01-15T06:09:09;0.80;;;0.50;;
65018;SDS011;66069;51.164;-114.452;2024-01-15T06:11:35;0.68;;;0.30;;
65018;SDS011;66069;51.164;-114.452;2024-01-15T06:14:02;0.68;;;0.30;;
65018;SDS011;66069;51.164;-114.452;2024-01-15T06:16:28;0.63;;;0.57;;
65018;SDS011;66069;51.164;-114.452;2024-01-15T06:18:55;0.43;;;0.30;;
65018;SDS011;66069;51.164;-114.452;2024-01-15T06:21:21;0.30;;;0.30;;
65018;SDS011;66069;51.164;-114.452;2024-01-15T06:23:47;0.45;;;0.30;;
65018;SDS011;66069;51.164;-114.452;2024-01-15T06:26:13;0.57;;;0.32;;
65018;SDS011;66069;51.164;-114.452;2024-01-15T06:28:40;0.90;;;0.40;;
65018;SDS011;66069;51.164;-114.452;2024-01-15T06:31:06;0.50;;;0.30;;
65018;SDS011;66069;51.164;-114.452;2024-01-15T06:33:33;0.75;;;0.30;;
65018;SDS011;66069;51.164;-114.452;2024-01-15T06:35:59;0.90;;;0.43;;
65018;SDS011;66069;51.164;-114.452;2024-01-15T06:38:25;0.47;;;0.30;;
65018;SDS011;66069;51.164;-114.452;2024-01-15T06:40:52;0.63;;;0.45;;
65018;SDS011;66069;51.164;-114.452;2024-01-15T06:43:18;0.75;;;0.40;;
65018;SDS011;66069;51.164;-114.452;2024-01-15T06:45:45;0.45;;;0.30;;
65018;SDS011;66069;51.164;-114.452;2024-01-15T06:48:11;0.75;;;0.40;;
65018;SDS011;66069;51.164;-114.452;2024-01-15T06:50:44;0.40;;;0.30;;
65018;SDS011;66069;51.164;-114.452;2024-01-15T06:53:11;0.77;;;0.43;;
65018;SDS011;66069;51.164;-114.452;2024-01-15T06:55:38;0.70;;;0.35;;
65018;SDS011;66069;51.164;-114.452;2024-01-15T06:58:04;0.60;;;0.30;;
65018;SDS011;66069;51.164;-114.452;2024-01-15T07:00:30;0.90;;;0.35;;
65018;SDS011;66069;51.164;-114.452;2024-01-15T07:02:57;0.90;;;0.30;;
65018;SDS011;66069;51.164;-114.452;2024-01-15T07:05:23;0.30;;;0.20;;
65018;SDS011;66069;51.164;-114.452;2024-01-15T07:07:50;0.60;;;0.30;;
65018;SDS011;66069;51.164;-114.452;2024-01-15T07:10:16;0.47;;;0.30;;
65018;SDS011;66069;51.164;-114.452;2024-01-15T07:12:43;0.50;;;0.20;;
65018;SDS011;66069;51.164;-114.452;2024-01-15T07:15:09;0.82;;;0.40;;
65018;SDS011;66069;51.164;-114.452;2024-01-15T07:17:36;0.85;;;0.50;;
65018;SDS011;66069;51.164;-114.452;2024-01-15T07:20:06;0.60;;;0.30;;
65018;SDS011;66069;51.164;-114.452;2024-01-15T07:22:35;0.57;;;0.38;;
65018;SDS011;66069;51.164;-114.452;2024-01-15T07:25:02;0.73;;;0.40;;
65018;SDS011;66069;51.164;-114.452;2024-01-15T07:27:30;0.55;;;0.35;;
65018;SDS011;66069;51.164;-114.452;2024-01-15T07:29:57;0.50;;;0.30;;
65018;SDS011;66069;51.164;-114.452;2024-01-15T07:32:23;0.70;;;0.40;;
65018;SDS011;66069;51.164;-114.452;2024-01-15T07:34:50;0.45;;;0.20;;
65018;SDS011;66069;51.164;-114.452;2024-01-15T07:37:16;0.70;;;0.43;;
65018;SDS011;66069;51.164;-114.452;2024-01-15T07:39:42;0.65;;;0.40;;
65018;SDS011;66069;51.164;-114.452;2024-01-15T07:42:09;0.73;;;0.35;;
65018;SDS011;66069;51.164;-114.452;2024-01-15T07:44:35;0.43;;;0.30;;
65018;SDS011;66069;51.164;-114.452;2024-01-15T07:47:01;0.63;;;0.30;;
65018;SDS011;66069;51.164;-114.452;2024-01-15T07:49:29;0.30;;;0.28;;
65018;SDS011;66069;51.164;-114.452;2024-01-15T07:51:55;0.82;;;0.40;;
65018;SDS011;66069;51.164;-114.452;2024-01-15T07:54:21;0.20;;;0.20;;
65018;SDS011;66069;51.164;-114.452;2024-01-15T07:56:55;0.30;;;0.30;;
65018;SDS011;66069;51.164;-114.452;2024-01-15T07:59:22;0.60;;;0.40;;
65018;SDS011;66069;51.164;-114.452;2024-01-15T08:01:49;1.15;;;0.40;;
65018;SDS011;66069;51.164;-114.452;2024-01-15T08:04:16;0.55;;;0.35;;
65018;SDS011;66069;51.164;-114.452;2024-01-15T08:06:43;0.30;;;0.25;;
65018;SDS011;66069;51.164;-114.452;2024-01-15T08:09:09;0.47;;;0.38;;
65018;SDS011;66069;51.164;-114.452;2024-01-15T08:11:35;0.77;;;0.40;;
65018;SDS011;66069;51.164;-114.452;2024-01-15T08:14:04;0.50;;;0.30;;
65018;SDS011;66069;51.164;-114.452;2024-01-15T08:16:30;0.55;;;0.30;;
65018;SDS011;66069;51.164;-114.452;2024-01-15T08:18:57;1.27;;;0.50;;
65018;SDS011;66069;51.164;-114.452;2024-01-15T08:21:23;0.35;;;0.20;;
65018;SDS011;66069;51.164;-114.452;2024-01-15T08:23:50;0.70;;;0.30;;
65018;SDS011;66069;51.164;-114.452;2024-01-15T08:26:16;0.73;;;0.30;;
65018;SDS011;66069;51.164;-114.452;2024-01-15T08:28:42;1.00;;;0.38;;
65018;SDS011;66069;51.164;-114.452;2024-01-15T08:31:08;1.02;;;0.30;;
65018;SDS011;66069;51.164;-114.452;2024-01-15T08:33:35;0.75;;;0.32;;
65018;SDS011;66069;51.164;-114.452;2024-01-15T08:36:01;0.45;;;0.30;;
65018;SDS011;66069;51.164;-114.452;2024-01-15T08:38:28;0.70;;;0.30;;
65018;SDS011;66069;51.164;-114.452;2024-01-15T08:40:54;0.40;;;0.25;;
65018;SDS011;66069;51.164;-114.452;2024-01-15T08:43:22;0.80;;;0.40;;
65018;SDS011;66069;51.164;-114.452;2024-01-15T08:45:48;0.65;;;0.35;;
65018;SDS011;66069;51.164;-114.452;2024-01-15T08:48:14;1.15;;;0.50;;
65018;SDS011;66069;51.164;-114.452;2024-01-15T08:50:40;0.65;;;0.40;;
65018;SDS011;66069;51.164;-114.452;2024-01-15T08:53:07;0.52;;;0.20;;
65018;SDS011;66069;51.164;-114.452;2024-01-15T08:55:33;0.70;;;0.40;;
65018;SDS011;66069;51.164;-114.452;2024-01-15T08:57:59;0.80;;;0.40;;
65018;SDS011;66069;51.164;-114.452;2024-01-15T09:00:26;1.05;;;0.40;;
65018;SDS011;66069;51.164;-114.452;2024-01-15T09:02:52;0.45;;;0.30;;
65018;SDS011;66069;51.164;-114.452;2024-01-15T09:05:18;0.30;;;0.30;;
65018;SDS011;66069;51.164;-114.452;2024-01-15T09:07:44;0.70;;;0.40;;
65018;SDS011;66069;51.164;-114.452;2024-01-15T09:10:11;0.47;;;0.30;;
65018;SDS011;66069;51.164;-114.452;2024-01-15T09:12:38;0.68;;;0.43;;
65018;SDS011;66069;51.164;-114.452;2024-01-15T09:15:05;0.60;;;0.40;;
65018;SDS011;66069;51.164;-114.452;2024-01-15T09:17:31;0.38;;;0.30;;
65018;SDS011;66069;51.164;-114.452;2024-01-15T09:19:58;0.52;;;0.30;;
65018;SDS011;66069;51.164;-114.452;2024-01-15T09:22:24;0.57;;;0.30;;
65018;SDS011;66069;51.164;-114.452;2024-01-15T09:24:50;0.50;;;0.20;;
65018;SDS011;66069;51.164;-114.452;2024-01-15T09:27:17;0.50;;;0.30;;
65018;SDS011;66069;51.164;-114.452;2024-01-15T09:29:43;0.90;;;0.40;;
65018;SDS011;66069;51.164;-114.452;2024-01-15T09:32:11;0.80;;;0.47;;
65018;SDS011;66069;51.164;-114.452;2024-01-15T09:34:38;0.57;;;0.30;;
65018;SDS011;66069;51.164;-114.452;2024-01-15T09:37:04;0.65;;;0.32;;
65018;SDS011;66069;51.164;-114.452;2024-01-15T09:39:34;0.75;;;0.50;;
65018;SDS011;66069;51.164;-114.452;2024-01-15T09:42:00;0.73;;;0.40;;
65018;SDS011;66069;51.164;-114.452;2024-01-15T09:44:27;0.40;;;0.30;;
65018;SDS011;66069;51.164;-114.452;2024-01-15T09:46:55;0.20;;;0.20;;
65018;SDS011;66069;51.164;-114.452;2024-01-15T09:49:21;0.52;;;0.22;;
65018;SDS011;66069;51.164;-114.452;2024-01-15T09:51:48;1.02;;;0.40;;
65018;SDS011;66069;51.164;-114.452;2024-01-15T09:54:15;0.75;;;0.30;;
65018;SDS011;66069;51.164;-114.452;2024-01-15T09:56:46;0.38;;;0.30;;
65018;SDS011;66069;51.164;-114.452;2024-01-15T09:59:14;0.45;;;0.30;;
65018;SDS011;66069;51.164;-114.452;2024-01-15T10:01:44;0.47;;;0.30;;
65018;SDS011;66069;51.164;-114.452;2024-01-15T10:04:13;0.52;;;0.30;;
65018;SDS011;66069;51.164;-114.452;2024-01-15T10:06:43;0.32;;;0.22;;
65018;SDS011;66069;51.164;-114.452;2024-01-15T10:09:14;0.82;;;0.40;;
65018;SDS011;66069;51.164;-114.452;2024-01-15T10:11:44;0.63;;;0.30;;
65018;SDS011;66069;51.164;-114.452;2024-01-15T10:14:14;0.40;;;0.20;;
65018;SDS011;66069;51.164;-114.452;2024-01-15T10:16:40;0.30;;;0.30;;
65018;SDS011;66069;51.164;-114.452;2024-01-15T10:19:07;0.63;;;0.30;;
65018;SDS011;66069;51.164;-114.452;2024-01-15T10:21:36;0.68;;;0.30;;
65018;SDS011;66069;51.164;-114.452;2024-01-15T10:24:03;0.35;;;0.28;;
65018;SDS011;66069;51.164;-114.452;2024-01-15T10:26:30;0.60;;;0.35;;
65018;SDS011;66069;51.164;-114.452;2024-01-15T10:29:00;0.75;;;0.30;;
65018;SDS011;66069;51.164;-114.452;2024-01-15T10:31:27;0.65;;;0.40;;
65018;SDS011;66069;51.164;-114.452;2024-01-15T10:33:54;0.52;;;0.25;;
65018;SDS011;66069;51.164;-114.452;2024-01-15T10:36:20;0.50;;;0.20;;
65018;SDS011;66069;51.164;-114.452;2024-01-15T10:38:46;0.40;;;0.20;;
65018;SDS011;66069;51.164;-114.452;2024-01-15T10:41:13;0.50;;;0.20;;
65018;SDS011;66069;51.164;-114.452;2024-01-15T10:43:39;0.73;;;0.40;;
65018;SDS011;66069;51.164;-114.452;2024-01-15T10:46:06;0.38;;;0.30;;
65018;SDS011;66069;51.164;-114.452;2024-01-15T10:48:33;0.63;;;0.30;;
65018;SDS011;66069;51.164;-114.452;2024-01-15T10:51:03;1.13;;;0.30;;
65018;SDS011;66069;51.164;-114.452;2024-01-15T10:53:37;0.50;;;0.30;;
65018;SDS011;66069;51.164;-114.452;2024-01-15T10:56:05;1.02;;;0.30;;
65018;SDS011;66069;51.164;-114.452;2024-01-15T10:58:33;0.77;;;0.32;;
65018;SDS011;66069;51.164;-114.452;2024-01-15T11:01:01;0.50;;;0.30;;
65018;SDS011;66069;51.164;-114.452;2024-01-15T11:03:28;0.90;;;0.32;;
65018;SDS011;66069;51.164;-114.452;2024-01-15T11:05:54;0.20;;;0.20;;
65018;SDS011;66069;51.164;-114.452;2024-01-15T11:08:24;0.32;;;0.20;;
65018;SDS011;66069;51.164;-114.452;2024-01-15T11:10:51;0.75;;;0.32;;
65018;SDS011;66069;51.164;-114.452;2024-01-15T11:18:35;0.38;;;0.30;;
65018;SDS011;66069;51.164;-114.452;2024-01-15T11:23:42;0.40;;;0.20;;
65018;SDS011;66069;51.164;-114.452;2024-01-15T11:29:04;0.40;;;0.30;;
65018;SDS011;66069;51.164;-114.452;2024-01-15T11:34:10;0.57;;;0.30;;
65018;SDS011;66069;51.164;-114.452;2024-01-15T11:41:57;0.68;;;0.22;;
65018;SDS011;66069;51.164;-114.452;2024-01-15T11:44:25;0.57;;;0.22;;
65018;SDS011;66069;51.164;-114.452;2024-01-15T11:49:28;0.43;;;0.20;;
65018;SDS011;66069;51.164;-114.452;2024-01-15T11:52:18;0.77;;;0.30;;
65018;SDS011;66069;51.164;-114.452;2024-01-15T11:55:04;0.50;;;0.30;;
65018;SDS011;66069;51.164;-114.452;2024-01-15T12:00:21;0.30;;;0.20;;
65018;SDS011;66069;51.164;-114.452;2024-01-15T12:02:48;0.88;;;0.40;;
65018;SDS011;66069;51.164;-114.452;2024-01-15T12:05:17;0.32;;;0.30;;
65018;SDS011;66069;51.164;-114.452;2024-01-15T12:07:45;0.55;;;0.30;;
65018;SDS011;66069;51.164;-114.452;2024-01-15T12:13:04;0.75;;;0.47;;
65018;SDS011;66069;51.164;-114.452;2024-01-15T12:15:35;0.28;;;0.22;;
65018;SDS011;66069;51.164;-114.452;2024-01-15T12:18:01;0.32;;;0.20;;
65018;SDS011;66069;51.164;-114.452;2024-01-15T12:20:28;0.68;;;0.30;;
65018;SDS011;66069;51.164;-114.452;2024-01-15T12:22:56;1.35;;;0.30;;
65018;SDS011;66069;51.164;-114.452;2024-01-15T12:25:23;0.35;;;0.30;;
65018;SDS011;66069;51.164;-114.452;2024-01-15T12:27:52;0.40;;;0.30;;
65018;SDS011;66069;51.164;-114.452;2024-01-15T12:30:19;0.45;;;0.28;;
65018;SDS011;66069;51.164;-114.452;2024-01-15T12:32:45;0.95;;;0.40;;
65018;SDS011;66069;51.164;-114.452;2024-01-15T12:35:14;0.20;;;0.20;;
65018;SDS011;66069;51.164;-114.452;2024-01-15T12:37:41;0.52;;;0.40;;
65018;SDS011;66069;51.164;-114.452;2024-01-15T12:40:09;0.10;;;0.10;;
65018;SDS011;66069;51.164;-114.452;2024-01-15T12:42:37;0.40;;;0.20;;
65018;SDS011;66069;51.164;-114.452;2024-01-15T12:45:05;0.68;;;0.35;;
65018;SDS011;66069;51.164;-114.452;2024-01-15T12:47:32;0.30;;;0.25;;
65018;SDS011;66069;51.164;-114.452;2024-01-15T12:49:58;0.47;;;0.20;;
65018;SDS011;66069;51.164;-114.452;2024-01-15T12:52:28;0.10;;;0.10;;
65018;SDS011;66069;51.164;-114.452;2024-01-15T12:54:55;0.22;;;0.20;;
65018;SDS011;66069;51.164;-114.452;2024-01-15T12:57:21;0.57;;;0.30;;
65018;SDS011;66069;51.164;-114.452;2024-01-15T12:59:48;0.20;;;0.20;;
65018;SDS011;66069;51.164;-114.452;2024-01-15T13:02:18;0.28;;;0.20;;
65018;SDS011;66069;51.164;-114.452;2024-01-15T13:04:44;0.45;;;0.30;;
65018;SDS011;66069;51.164;-114.452;2024-01-15T13:07:10;0.30;;;0.20;;
65018;SDS011;66069;51.164;-114.452;2024-01-15T13:09:37;0.68;;;0.30;;
65018;SDS011;66069;51.164;-114.452;2024-01-15T13:12:03;0.95;;;0.30;;
65018;SDS011;66069;51.164;-114.452;2024-01-15T13:14:31;0.47;;;0.22;;
65018;SDS011;66069;51.164;-114.452;2024-01-15T13:17:00;1.75;;;0.20;;
65018;SDS011;66069;51.164;-114.452;2024-01-15T13:19:26;0.52;;;0.28;;
65018;SDS011;66069;51.164;-114.452;2024-01-15T13:21:52;0.45;;;0.25;;
65018;SDS011;66069;51.164;-114.452;2024-01-15T13:24:20;0.20;;;0.20;;
65018;SDS011;66069;51.164;-114.452;2024-01-15T13:26:47;0.47;;;0.30;;
65018;SDS011;66069;51.164;-114.452;2024-01-15T13:29:14;0.10;;;0.10;;
65018;SDS011;66069;51.164;-114.452;2024-01-15T13:31:40;0.68;;;0.30;;
65018;SDS011;66069;51.164;-114.452;2024-01-15T13:34:06;0.50;;;0.20;;
65018;SDS011;66069;51.164;-114.452;2024-01-15T13:36:32;0.57;;;0.32;;
65018;SDS011;66069;51.164;-114.452;2024-01-15T13:38:59;0.32;;;0.30;;
65018;SDS011;66069;51.164;-114.452;2024-01-15T13:41:25;0.35;;;0.20;;
65018;SDS011;66069;51.164;-114.452;2024-01-15T13:43:53;0.30;;;0.20;;
65018;SDS011;66069;51.164;-114.452;2024-01-15T13:46:23;0.32;;;0.22;;
65018;SDS011;66069;51.164;-114.452;2024-01-15T13:48:52;0.20;;;0.20;;
65018;SDS011;66069;51.164;-114.452;2024-01-15T13:51:19;0.45;;;0.20;;
65018;SDS011;66069;51.164;-114.452;2024-01-15T13:53:49;0.22;;;0.20;;
65018;SDS011;66069;51.164;-114.452;2024-01-15T13:56:15;0.10;;;0.10;;
65018;SDS011;66069;51.164;-114.452;2024-01-15T13:58:42;0.68;;;0.30;;
65018;SDS011;66069;51.164;-114.452;2024-01-15T14:01:08;0.28;;;0.20;;
65018;SDS011;66069;51.164;-114.452;2024-01-15T14:03:35;0.15;;;0.13;;
65018;SDS011;66069;51.164;-114.452;2024-01-15T14:06:02;0.40;;;0.20;;
65018;SDS011;66069;51.164;-114.452;2024-01-15T14:08:29;0.50;;;0.25;;
65018;SDS011;66069;51.164;-114.452;2024-01-15T14:10:55;0.50;;;0.20;;
65018;SDS011;66069;51.164;-114.452;2024-01-15T14:13:22;0.20;;;0.20;;
65018;SDS011;66069;51.164;-114.452;2024-01-15T14:15:49;0.22;;;0.20;;
65018;SDS011;66069;51.164;-114.452;2024-01-15T14:18:16;0.22;;;0.20;;
65018;SDS011;66069;51.164;-114.452;2024-01-15T14:20:42;0.22;;;0.20;;
65018;SDS011;66069;51.164;-114.452;2024-01-15T14:23:09;0.28;;;0.20;;
65018;SDS011;66069;51.164;-114.452;2024-01-15T14:25:35;0.17;;;0.15;;
65018;SDS011;66069;51.164;-114.452;2024-01-15T14:28:02;0.20;;;0.20;;
65018;SDS011;66069;51.164;-114.452;2024-01-15T14:30:28;0.35;;;0.20;;
65018;SDS011;66069;51.164;-114.452;2024-01-15T14:32:54;0.20;;;0.20;;